createdAt,value
2022-10-07T00:01:49.303Z,100.00
2022-10-07T00:04:19.730Z,100.00
2022-10-07T00:06:48.276Z,100.00
2022-10-07T00:09:16.726Z,100.00
2022-10-07T00:11:45.315Z,100.00
2022-10-07T00:14:13.769Z,100.00
2022-10-07T00:16:43.551Z,100.00
2022-10-07T00:19:14.938Z,100.00
2022-10-07T00:21:44.720Z,100.00
2022-10-07T00:24:13.198Z,100.00
2022-10-07T00:26:41.575Z,100.00
2022-10-07T00:29:10.120Z,100.00
2022-10-07T00:31:38.911Z,100.00
2022-10-07T00:34:07.329Z,100.00
2022-10-07T00:36:38.981Z,100.00
2022-10-07T00:39:12.644Z,100.00
2022-10-07T00:41:43.850Z,100.00
2022-10-07T00:44:46.246Z,100.00
2022-10-07T00:47:25.197Z,100.00
2022-10-07T00:49:59.598Z,100.00
2022-10-07T00:52:33.197Z,100.00
2022-10-07T00:55:10.585Z,100.00
2022-10-07T00:57:41.179Z,100.00
2022-10-07T01:00:11.972Z,100.00
2022-10-07T01:02:41.897Z,100.00
2022-10-07T01:05:14.234Z,100.00
2022-10-07T01:07:47.302Z,100.00
2022-10-07T01:10:20.546Z,100.00
2022-10-07T01:13:05.555Z,100.00
2022-10-07T01:15:40.630Z,100.00
2022-10-07T01:18:22.858Z,100.00
2022-10-07T01:20:59.650Z,100.00
2022-10-07T01:23:56.201Z,100.00
2022-10-07T01:26:49.806Z,100.00
2022-10-07T01:29:27.474Z,100.00
2022-10-07T01:32:04.986Z,100.00
2022-10-07T01:34:35.330Z,100.00
2022-10-07T01:37:08.837Z,100.00
2022-10-07T01:39:43.596Z,100.00
2022-10-07T01:42:13.641Z,100.00
2022-10-07T01:44:42.742Z,100.00
2022-10-07T01:47:13.116Z,100.00
2022-10-07T01:49:42.476Z,100.00
2022-10-07T01:52:40.935Z,100.00
2022-10-07T01:55:32.925Z,100.00
2022-10-07T01:58:19.069Z,100.00
2022-10-07T02:01:00.550Z,100.00
2022-10-07T02:04:09.885Z,100.00
2022-10-07T02:06:50.727Z,100.00
2022-10-07T02:09:32.793Z,100.00
2022-10-07T02:12:14.033Z,100.00
2022-10-07T02:14:56.617Z,100.00
2022-10-07T02:17:36.438Z,100.00
2022-10-07T02:20:11.898Z,100.00
2022-10-07T02:22:44.486Z,100.00
2022-10-07T02:25:16.440Z,100.00
2022-10-07T02:27:51.511Z,100.00
2022-10-07T02:30:24.262Z,100.00
2022-10-07T02:32:58.345Z,100.00
2022-10-07T02:35:38.025Z,100.00
2022-10-07T02:38:12.770Z,100.00
2022-10-07T02:40:51.148Z,100.00
2022-10-07T02:43:30.972Z,100.00
2022-10-07T02:46:10.194Z,100.00
2022-10-07T02:48:46.283Z,100.00
2022-10-07T02:51:22.683Z,100.00
2022-10-07T02:53:56.316Z,100.00
2022-10-07T02:56:27.645Z,100.00
2022-10-07T02:58:57.673Z,100.00
2022-10-07T03:01:35.336Z,100.00
2022-10-07T03:04:03.892Z,100.00
2022-10-07T03:06:32.571Z,100.00
2022-10-07T03:09:04.041Z,100.00
2022-10-07T03:11:32.727Z,100.00
2022-10-07T03:14:01.720Z,100.00
2022-10-07T03:16:32.394Z,100.00
2022-10-07T03:19:01.380Z,100.00
2022-10-07T03:21:36.043Z,100.00
2022-10-07T03:24:05.802Z,100.00
2022-10-07T03:26:41.049Z,100.00
2022-10-07T03:29:10.431Z,100.00
2022-10-07T03:31:42.888Z,100.00
2022-10-07T03:34:12.164Z,100.00
2022-10-07T03:36:43.472Z,100.00
2022-10-07T03:39:12.868Z,100.00
2022-10-07T03:41:42.228Z,100.00
2022-10-07T03:44:11.433Z,100.00
2022-10-07T03:46:41.674Z,100.00
2022-10-07T03:49:10.075Z,100.00
2022-10-07T03:51:38.558Z,100.00
2022-10-07T03:54:09.294Z,100.00
2022-10-07T03:56:38.743Z,100.00
2022-10-07T03:59:07.057Z,100.00
2022-10-07T04:01:37.342Z,100.00
2022-10-07T04:04:07.623Z,100.00
2022-10-07T04:06:38.899Z,100.00
2022-10-07T04:09:13.225Z,100.00
2022-10-07T04:11:42.147Z,100.00
2022-10-07T04:14:11.337Z,100.00
2022-10-07T04:16:41.808Z,100.00
2022-10-07T04:19:14.249Z,100.00
2022-10-07T04:21:44.401Z,100.00
2022-10-07T04:24:13.149Z,100.00
2022-10-07T04:26:41.759Z,100.00
2022-10-07T04:29:10.657Z,100.00
2022-10-07T04:31:39.394Z,100.00
2022-10-07T04:34:08.545Z,100.00
2022-10-07T04:36:44.023Z,100.00
2022-10-07T04:39:15.797Z,100.00
2022-10-07T04:41:52.083Z,100.00
2022-10-07T04:44:24.255Z,100.00
2022-10-07T04:47:00.851Z,100.00
2022-10-07T04:49:31.769Z,100.00
2022-10-07T04:52:03.425Z,100.00
2022-10-07T04:54:36.665Z,100.00
2022-10-07T04:57:05.174Z,100.00
2022-10-07T04:59:34.526Z,100.00
2022-10-07T05:02:03.617Z,100.00
2022-10-07T05:04:35.304Z,100.00
2022-10-07T05:07:06.284Z,100.00
2022-10-07T05:09:37.010Z,100.00
2022-10-07T05:12:06.242Z,100.00
2022-10-07T05:14:34.885Z,100.00
2022-10-07T05:17:04.802Z,100.00
2022-10-07T05:19:36.237Z,100.00
2022-10-07T05:22:06.483Z,100.00
2022-10-07T05:24:34.938Z,100.00
2022-10-07T05:27:04.189Z,100.00
2022-10-07T05:29:32.493Z,100.00
2022-10-07T05:32:04.855Z,100.00
2022-10-07T05:34:34.583Z,100.00
2022-10-07T05:37:02.912Z,100.00
2022-10-07T05:39:32.946Z,100.00
2022-10-07T05:42:08.242Z,100.00
2022-10-07T05:44:43.356Z,100.00
2022-10-07T05:47:14.130Z,100.00
2022-10-07T05:49:43.174Z,100.00
2022-10-07T05:52:11.877Z,100.00
2022-10-07T05:54:42.981Z,100.00
2022-10-07T05:57:12.534Z,100.00
2022-10-07T05:59:42.257Z,100.00
2022-10-07T06:02:16.232Z,100.00
2022-10-07T06:04:47.972Z,100.00
2022-10-07T06:07:21.428Z,100.00
2022-10-07T06:10:11.234Z,100.00
2022-10-07T06:12:57.775Z,100.00
2022-10-07T06:15:26.453Z,100.00
2022-10-07T06:17:54.792Z,100.00
2022-10-07T06:20:23.697Z,100.00
2022-10-07T06:22:55.428Z,100.00
2022-10-07T06:25:25.120Z,100.00
2022-10-07T06:27:56.479Z,100.00
2022-10-07T06:30:27.249Z,100.00
2022-10-07T06:32:57.147Z,100.00
2022-10-07T06:35:25.838Z,100.00
2022-10-07T06:37:55.845Z,100.00
2022-10-07T06:40:26.679Z,100.00
2022-10-07T06:42:55.107Z,100.00
2022-10-07T06:45:33.159Z,100.00
2022-10-07T06:48:02.541Z,100.00
2022-10-07T06:50:32.135Z,100.00
2022-10-07T06:53:01.047Z,100.00
2022-10-07T06:55:33.886Z,100.00
2022-10-07T06:58:06.337Z,100.00
2022-10-07T07:00:38.362Z,100.00
2022-10-07T07:03:07.144Z,100.00
2022-10-07T07:05:42.874Z,100.00
2022-10-07T07:08:17.366Z,100.00
2022-10-07T07:10:48.489Z,100.00
2022-10-07T07:13:18.269Z,100.00
2022-10-07T07:16:00.276Z,100.00
2022-10-07T07:18:33.233Z,100.00
2022-10-07T07:21:07.781Z,100.00
2022-10-07T07:23:36.721Z,100.00
2022-10-07T07:26:06.544Z,100.00
2022-10-07T07:28:36.733Z,100.00
2022-10-07T07:31:09.513Z,100.00
2022-10-07T07:33:39.363Z,100.00
2022-10-07T07:36:16.551Z,100.00
2022-10-07T07:38:53.178Z,100.00
2022-10-07T07:41:27.773Z,100.00
2022-10-07T07:43:59.363Z,100.00
2022-10-07T07:46:33.337Z,100.00
2022-10-07T07:49:01.806Z,100.00
2022-10-07T07:51:30.765Z,100.00
2022-10-07T07:53:59.794Z,100.00
2022-10-07T07:56:31.989Z,100.00
2022-10-07T07:59:02.214Z,100.00
2022-10-07T08:01:32.480Z,100.00
2022-10-07T08:04:01.639Z,100.00
2022-10-07T08:06:31.413Z,100.00
2022-10-07T08:09:01.040Z,100.00
2022-10-07T08:11:33.377Z,100.00
2022-10-07T08:14:04.417Z,100.00
2022-10-07T08:16:36.833Z,100.00
2022-10-07T08:19:06.762Z,100.00
2022-10-07T08:21:35.491Z,100.00
2022-10-07T08:24:08.300Z,100.00
2022-10-07T08:26:41.842Z,100.00
2022-10-07T08:29:15.396Z,100.00
2022-10-07T08:31:45.226Z,100.00
2022-10-07T08:34:13.793Z,100.00
2022-10-07T08:36:47.307Z,100.00
2022-10-07T08:39:16.923Z,100.00
2022-10-07T08:42:05.844Z,100.00
2022-10-07T08:44:40.942Z,100.00
2022-10-07T08:47:23.899Z,85.84
2022-10-07T08:50:18.136Z,83.71
2022-10-07T08:52:53.668Z,75.59
2022-10-07T08:55:35.868Z,72.77
2022-10-07T08:58:36.974Z,74.07
2022-10-07T09:01:25.712Z,66.60
2022-10-07T09:04:10.707Z,77.62
2022-10-07T09:06:44.988Z,69.00
2022-10-07T09:09:16.877Z,70.44
2022-10-07T09:11:50.642Z,73.84
2022-10-07T09:14:30.555Z,75.37
2022-10-07T09:17:08.792Z,65.98
2022-10-07T09:19:45.046Z,68.47
2022-10-07T09:22:21.409Z,72.55
2022-10-07T09:24:56.512Z,73.68
2022-10-07T09:27:26.763Z,69.19
2022-10-07T09:29:57.656Z,69.43
2022-10-07T09:32:26.159Z,74.46
2022-10-07T09:34:56.764Z,70.29
2022-10-07T09:37:27.788Z,66.68
2022-10-07T09:40:18.031Z,64.42
2022-10-07T09:42:46.918Z,63.34
2022-10-07T09:45:27.600Z,62.93
2022-10-07T09:48:00.508Z,65.07
2022-10-07T09:50:38.101Z,62.53
2022-10-07T09:53:17.739Z,63.31
2022-10-07T09:55:46.315Z,64.63
2022-10-07T09:58:28.852Z,65.39
2022-10-07T10:01:02.405Z,66.86
2022-10-07T10:03:33.491Z,73.25
2022-10-07T10:06:04.482Z,67.24
2022-10-07T10:08:37.041Z,65.85
2022-10-07T10:11:25.872Z,64.01
2022-10-07T10:13:54.853Z,65.40
2022-10-07T10:16:36.247Z,67.49
2022-10-07T10:19:07.335Z,67.43
2022-10-07T10:21:41.002Z,63.31
2022-10-07T10:24:16.141Z,72.54
2022-10-07T10:27:01.574Z,71.49
2022-10-07T10:29:51.625Z,69.29
2022-10-07T10:33:15.801Z,68.50
2022-10-07T10:35:57.203Z,66.54
2022-10-07T10:38:52.024Z,59.02
2022-10-07T10:41:31.690Z,61.22
2022-10-07T10:44:44.488Z,60.79
2022-10-07T10:47:25.648Z,61.04
2022-10-07T10:50:17.479Z,57.14
2022-10-07T10:53:03.934Z,58.05
2022-10-07T10:56:17.215Z,54.92
2022-10-07T10:59:03.896Z,53.70
2022-10-07T11:01:38.135Z,54.60
2022-10-07T11:04:30.704Z,55.10
2022-10-07T11:07:09.352Z,55.39
2022-10-07T11:09:44.532Z,54.91
2022-10-07T11:12:26.221Z,54.10
2022-10-07T11:15:03.778Z,55.53
2022-10-07T11:17:37.638Z,57.77
2022-10-07T11:20:20.219Z,59.87
2022-10-07T11:22:58.055Z,56.66
2022-10-07T11:25:35.128Z,56.59
2022-10-07T11:28:17.176Z,52.14
2022-10-07T11:30:55.861Z,52.75
2022-10-07T11:33:35.016Z,51.35
2022-10-07T11:36:14.209Z,52.57
2022-10-07T11:38:45.269Z,50.29
2022-10-07T11:41:21.266Z,49.41
2022-10-07T11:43:55.744Z,48.41
2022-10-07T11:46:33.087Z,52.36
2022-10-07T11:49:07.501Z,50.96
2022-10-07T11:51:40.143Z,49.42
2022-10-07T11:54:16.483Z,54.39
2022-10-07T11:56:50.641Z,56.94
2022-10-07T11:59:44.528Z,56.99
2022-10-07T12:02:46.111Z,65.82
2022-10-07T12:05:58.928Z,60.32
2022-10-07T12:08:36.755Z,59.43
2022-10-07T12:11:48.389Z,58.81
2022-10-07T12:14:41.406Z,61.19
2022-10-07T12:17:28.224Z,52.11
2022-10-07T12:20:45.216Z,52.48
2022-10-07T12:24:10.951Z,48.36
2022-10-07T12:26:48.578Z,45.74
2022-10-07T12:29:58.499Z,47.40
2022-10-07T12:32:57.980Z,48.44
2022-10-07T12:35:54.532Z,52.14
2022-10-07T12:38:27.605Z,57.34
2022-10-07T12:41:25.594Z,61.29
2022-10-07T12:44:04.528Z,60.81
2022-10-07T12:46:42.579Z,64.24
2022-10-07T12:49:22.015Z,68.30
2022-10-07T12:51:54.666Z,76.11
2022-10-07T12:54:33.716Z,76.79
2022-10-07T12:57:03.899Z,74.82
2022-10-07T12:59:55.136Z,78.37
2022-10-07T13:03:36.606Z,74.48
2022-10-07T13:06:51.834Z,75.23
2022-10-07T13:10:04.381Z,72.95
2022-10-07T13:12:46.715Z,75.71
2022-10-07T13:15:31.397Z,75.59
2022-10-07T13:18:14.051Z,81.33
2022-10-07T13:21:02.591Z,78.26
2022-10-07T13:23:32.737Z,78.23
2022-10-07T13:26:02.816Z,74.98
2022-10-07T13:28:48.374Z,78.09
2022-10-07T13:31:23.241Z,74.65
2022-10-07T13:33:53.772Z,76.41
2022-10-07T13:36:26.003Z,78.69
2022-10-07T13:39:11.083Z,87.08
2022-10-07T13:41:44.258Z,81.04
2022-10-07T13:44:18.577Z,79.80
2022-10-07T13:46:59.957Z,85.65
2022-10-07T13:49:31.923Z,91.68
2022-10-07T13:52:06.394Z,93.23
2022-10-07T13:54:35.865Z,93.62
2022-10-07T13:57:07.731Z,94.54
2022-10-07T13:59:38.959Z,98.03
2022-10-07T14:02:12.493Z,96.10
2022-10-07T14:04:54.455Z,97.31
2022-10-07T14:07:23.576Z,98.36
2022-10-07T14:10:04.828Z,97.81
2022-10-07T14:12:37.890Z,99.98
2022-10-07T14:15:13.151Z,100.00
2022-10-07T14:17:47.597Z,100.00
2022-10-07T14:20:25.188Z,97.02
2022-10-07T14:22:57.222Z,94.28
2022-10-07T14:25:29.916Z,83.71
2022-10-07T14:28:21.431Z,71.81
2022-10-07T14:31:42.466Z,66.17
2022-10-07T14:34:34.471Z,70.77
2022-10-07T14:37:06.017Z,76.45
2022-10-07T14:39:37.838Z,76.19
2022-10-07T14:42:12.260Z,78.37
2022-10-07T14:44:44.017Z,80.38
2022-10-07T14:47:16.306Z,78.72
2022-10-07T14:49:46.290Z,82.61
2022-10-07T14:52:22.155Z,84.76
2022-10-07T14:54:53.149Z,86.02
2022-10-07T14:57:21.621Z,91.05
2022-10-07T14:59:50.256Z,91.43
2022-10-07T15:02:19.204Z,93.75
2022-10-07T15:04:50.187Z,97.75
2022-10-07T15:07:19.635Z,99.22
2022-10-07T15:09:48.586Z,98.49
2022-10-07T15:12:17.718Z,100.00
2022-10-07T15:14:46.338Z,100.00
2022-10-07T15:17:15.317Z,100.00
2022-10-07T15:19:43.609Z,100.00
2022-10-07T15:22:13.347Z,100.00
2022-10-07T15:24:42.294Z,99.53
2022-10-07T15:27:10.621Z,100.00
2022-10-07T15:29:40.520Z,100.00
2022-10-07T15:32:09.866Z,100.00
2022-10-07T15:34:38.177Z,100.00
2022-10-07T15:37:08.119Z,100.00
2022-10-07T15:39:39.799Z,100.00
2022-10-07T15:42:09.542Z,100.00
2022-10-07T15:44:37.849Z,100.00
2022-10-07T15:47:06.281Z,100.00
2022-10-07T15:49:36.173Z,100.00
2022-10-07T15:52:04.873Z,100.00
2022-10-07T15:54:33.282Z,100.00
2022-10-07T15:57:03.284Z,100.00
2022-10-07T15:59:31.603Z,100.00
2022-10-07T16:02:00.099Z,100.00
2022-10-07T16:04:28.953Z,100.00
2022-10-07T16:06:57.282Z,100.00
2022-10-07T16:09:26.167Z,100.00
2022-10-07T16:11:54.435Z,100.00
2022-10-07T16:14:24.061Z,100.00
2022-10-07T16:16:52.358Z,100.00
2022-10-07T16:19:21.084Z,100.00
2022-10-07T16:21:49.501Z,100.00
2022-10-07T16:24:21.437Z,100.00
2022-10-07T16:26:51.520Z,100.00
2022-10-07T16:29:39.457Z,100.00
2022-10-07T16:32:11.792Z,100.00
2022-10-07T16:34:43.289Z,100.00
2022-10-07T16:37:12.833Z,100.00
2022-10-07T16:39:41.140Z,100.00
2022-10-07T16:42:09.900Z,100.00
2022-10-07T16:44:38.803Z,100.00
2022-10-07T16:47:08.491Z,100.00
2022-10-07T16:49:36.897Z,100.00
2022-10-07T16:52:06.466Z,100.00
2022-10-07T16:54:35.488Z,100.00
2022-10-07T16:57:04.084Z,100.00
2022-10-07T16:59:32.716Z,100.00
2022-10-07T17:02:03.193Z,100.00
2022-10-07T17:04:33.245Z,100.00
2022-10-07T17:07:02.063Z,100.00
2022-10-07T17:09:30.437Z,100.00
2022-10-07T17:11:59.518Z,100.00
2022-10-07T17:14:31.537Z,100.00
2022-10-07T17:17:00.514Z,100.00
2022-10-07T17:19:30.260Z,100.00
2022-10-07T17:22:00.959Z,100.00
2022-10-07T17:24:30.049Z,100.00
2022-10-07T17:26:58.640Z,100.00
2022-10-07T17:29:27.170Z,100.00
2022-10-07T17:31:56.478Z,100.00
2022-10-07T17:34:25.031Z,100.00
2022-10-07T17:36:54.182Z,100.00
2022-10-07T17:39:24.525Z,100.00
2022-10-07T17:41:53.375Z,100.00
2022-10-07T17:44:22.170Z,100.00
2022-10-07T17:46:51.065Z,100.00
2022-10-07T17:49:19.719Z,100.00
2022-10-07T17:51:48.332Z,100.00
2022-10-07T17:54:17.034Z,100.00
2022-10-07T17:56:48.018Z,100.00
2022-10-07T17:59:19.778Z,100.00
2022-10-07T18:01:48.348Z,100.00
2022-10-07T18:04:23.883Z,100.00
2022-10-07T18:06:53.993Z,100.00
2022-10-07T18:09:24.185Z,100.00
2022-10-07T18:12:11.476Z,100.00
2022-10-07T18:14:57.881Z,100.00
2022-10-07T18:17:27.368Z,100.00
2022-10-07T18:19:56.927Z,100.00
2022-10-07T18:22:25.749Z,100.00
2022-10-07T18:24:57.115Z,100.00
2022-10-07T18:27:27.586Z,100.00
2022-10-07T18:29:56.981Z,100.00
2022-10-07T18:32:26.398Z,100.00
2022-10-07T18:34:54.931Z,100.00
2022-10-07T18:37:23.998Z,100.00
2022-10-07T18:39:52.913Z,100.00
2022-10-07T18:42:21.475Z,100.00
2022-10-07T18:44:52.408Z,100.00
2022-10-07T18:47:21.409Z,100.00
2022-10-07T18:49:51.724Z,100.00
2022-10-07T18:52:20.552Z,100.00
2022-10-07T18:54:49.300Z,100.00
2022-10-07T18:57:18.218Z,100.00
2022-10-07T18:59:46.796Z,100.00
2022-10-07T19:02:17.227Z,100.00
2022-10-07T19:04:46.070Z,100.00
2022-10-07T19:07:14.590Z,100.00
2022-10-07T19:09:42.926Z,100.00
2022-10-07T19:12:25.524Z,100.00
2022-10-07T19:14:54.196Z,100.00
2022-10-07T19:17:24.443Z,100.00
2022-10-07T19:19:53.198Z,100.00
2022-10-07T19:22:21.848Z,100.00
2022-10-07T19:25:07.891Z,100.00
2022-10-07T19:27:37.036Z,100.00
2022-10-07T19:30:06.527Z,100.00
2022-10-07T19:32:36.288Z,100.00
2022-10-07T19:35:06.252Z,100.00
2022-10-07T19:37:34.839Z,100.00
2022-10-07T19:40:03.303Z,100.00
2022-10-07T19:42:31.746Z,100.00
2022-10-07T19:45:00.187Z,100.00
2022-10-07T19:47:28.827Z,100.00
2022-10-07T19:49:58.569Z,100.00
2022-10-07T19:52:27.444Z,100.00
2022-10-07T19:54:55.999Z,100.00
2022-10-07T19:57:24.458Z,100.00
2022-10-07T19:59:52.741Z,100.00
2022-10-07T20:02:21.188Z,100.00
2022-10-07T20:04:49.856Z,100.00
2022-10-07T20:07:20.201Z,100.00
2022-10-07T20:09:48.501Z,100.00
2022-10-07T20:12:16.811Z,100.00
2022-10-07T20:14:45.429Z,100.00
2022-10-07T20:17:13.730Z,100.00
2022-10-07T20:19:42.247Z,100.00
2022-10-07T20:22:11.534Z,100.00
2022-10-07T20:24:41.519Z,100.00
2022-10-07T20:27:10.049Z,100.00
2022-10-07T20:29:57.091Z,100.00
2022-10-07T20:32:26.193Z,100.00
2022-10-07T20:34:55.505Z,100.00
2022-10-07T20:37:24.199Z,100.00
2022-10-07T20:40:11.710Z,100.00
2022-10-07T20:42:45.981Z,100.00
2022-10-07T20:45:15.999Z,100.00
2022-10-07T20:47:46.238Z,100.00
2022-10-07T20:50:14.770Z,100.00
2022-10-07T20:52:45.526Z,100.00
2022-10-07T20:55:15.755Z,100.00
2022-10-07T20:57:44.627Z,100.00
2022-10-07T21:00:16.969Z,100.00
2022-10-07T21:02:46.188Z,100.00
2022-10-07T21:05:15.148Z,100.00
2022-10-07T21:07:43.636Z,100.00
2022-10-07T21:10:12.531Z,100.00
2022-10-07T21:12:42.267Z,100.00
2022-10-07T21:15:11.814Z,100.00
2022-10-07T21:17:44.329Z,100.00
2022-10-07T21:20:13.046Z,100.00
2022-10-07T21:22:41.530Z,100.00
2022-10-07T21:25:11.831Z,100.00
2022-10-07T21:27:42.509Z,100.00
2022-10-07T21:30:11.870Z,100.00
2022-10-07T21:32:40.175Z,100.00
2022-10-07T21:35:10.101Z,100.00
2022-10-07T21:37:38.741Z,100.00
2022-10-07T21:40:08.368Z,100.00
2022-10-07T21:42:36.723Z,100.00
2022-10-07T21:45:08.071Z,100.00
2022-10-07T21:47:36.360Z,100.00
2022-10-07T21:50:04.990Z,100.00
2022-10-07T21:52:33.298Z,100.00
2022-10-07T21:55:01.652Z,100.00
2022-10-07T21:57:29.925Z,100.00
2022-10-07T21:59:58.215Z,100.00
2022-10-07T22:02:29.287Z,100.00
2022-10-07T22:04:57.756Z,100.00
2022-10-07T22:07:43.519Z,100.00
2022-10-07T22:10:12.148Z,100.00
2022-10-07T22:12:41.563Z,100.00
2022-10-07T22:15:11.287Z,100.00
2022-10-07T22:17:41.271Z,100.00
2022-10-07T22:20:10.722Z,100.00
2022-10-07T22:22:38.987Z,100.00
2022-10-07T22:25:08.876Z,100.00
2022-10-07T22:27:37.187Z,100.00
2022-10-07T22:30:08.194Z,100.00
2022-10-07T22:32:36.485Z,100.00
2022-10-07T22:35:24.706Z,100.00
2022-10-07T22:37:55.264Z,100.00
2022-10-07T22:40:24.052Z,100.00
2022-10-07T22:42:52.715Z,100.00
2022-10-07T22:45:20.989Z,100.00
2022-10-07T22:47:51.092Z,100.00
2022-10-07T22:50:20.718Z,100.00
2022-10-07T22:52:49.381Z,100.00
2022-10-07T22:55:21.275Z,100.00
2022-10-07T22:57:49.584Z,100.00
2022-10-07T23:00:18.346Z,100.00
2022-10-07T23:02:47.373Z,100.00
2022-10-07T23:05:16.115Z,100.00
2022-10-07T23:07:45.711Z,100.00
2022-10-07T23:10:14.037Z,100.00
2022-10-07T23:12:42.394Z,100.00
2022-10-07T23:15:11.800Z,100.00
2022-10-07T23:17:40.090Z,100.00
2022-10-07T23:20:09.492Z,100.00
2022-10-07T23:22:40.088Z,100.00
2022-10-07T23:25:10.538Z,100.00
2022-10-07T23:27:40.618Z,100.00
2022-10-07T23:30:11.176Z,100.00
2022-10-07T23:32:39.455Z,100.00
2022-10-07T23:35:08.922Z,100.00
2022-10-07T23:37:37.242Z,100.00
2022-10-07T23:40:06.917Z,100.00
2022-10-07T23:42:36.862Z,100.00
2022-10-07T23:45:06.104Z,100.00
2022-10-07T23:47:34.413Z,100.00
2022-10-07T23:50:02.727Z,100.00
2022-10-07T23:52:33.378Z,100.00
2022-10-07T23:55:01.739Z,100.00
2022-10-07T23:57:30.369Z,100.00
